createdAt,value
2022-08-30T00:02:11.920Z,61.55
2022-08-30T00:04:40.203Z,60.50
2022-08-30T00:07:08.421Z,59.31
2022-08-30T00:09:36.589Z,56.81
2022-08-30T00:12:05.535Z,57.01
2022-08-30T00:14:33.830Z,55.05
2022-08-30T00:17:02.153Z,54.71
2022-08-30T00:19:32.120Z,53.89
2022-08-30T00:22:00.340Z,53.52
2022-08-30T00:24:28.919Z,53.68
2022-08-30T00:26:57.201Z,53.95
2022-08-30T00:29:25.397Z,53.47
2022-08-30T00:31:53.708Z,53.97
2022-08-30T00:34:21.858Z,53.59
2022-08-30T00:36:51.619Z,53.93
2022-08-30T00:39:19.787Z,54.79
2022-08-30T00:41:48.698Z,55.18
2022-08-30T00:44:16.970Z,55.58
2022-08-30T00:46:45.099Z,55.38
2022-08-30T00:49:14.745Z,55.83
2022-08-30T00:51:43.257Z,56.19
2022-08-30T00:54:13.680Z,58.09
2022-08-30T00:56:42.074Z,58.38
2022-08-30T00:59:10.939Z,58.29
2022-08-30T01:01:39.620Z,59.92
2022-08-30T01:04:10.345Z,61.87
2022-08-30T01:06:40.033Z,62.03
2022-08-30T01:09:09.108Z,62.50
2022-08-30T01:11:39.479Z,61.98
2022-08-30T01:14:08.415Z,61.80
2022-08-30T01:16:41.267Z,62.65
2022-08-30T01:19:20.328Z,63.63
2022-08-30T01:21:53.651Z,63.75
2022-08-30T01:24:23.638Z,63.21
2022-08-30T01:26:51.761Z,63.17
2022-08-30T01:29:24.517Z,63.79
2022-08-30T01:31:53.316Z,63.47
2022-08-30T01:34:21.648Z,64.03
2022-08-30T01:36:50.645Z,62.99
2022-08-30T01:39:20.039Z,61.41
2022-08-30T01:41:49.728Z,61.01
2022-08-30T01:44:17.998Z,61.00
2022-08-30T01:46:48.582Z,61.45
2022-08-30T01:49:26.028Z,61.90
2022-08-30T01:52:00.712Z,62.00
2022-08-30T01:54:36.600Z,62.12
2022-08-30T01:57:08.824Z,62.44
2022-08-30T01:59:37.110Z,62.75
2022-08-30T02:02:06.642Z,63.15
2022-08-30T02:04:36.846Z,63.28
2022-08-30T02:07:06.505Z,63.73
2022-08-30T02:09:34.837Z,63.65
2022-08-30T02:12:03.422Z,63.58
2022-08-30T02:14:33.342Z,63.89
2022-08-30T02:17:02.697Z,64.03
2022-08-30T02:19:31.938Z,64.33
2022-08-30T02:22:00.082Z,64.11
2022-08-30T02:24:28.645Z,63.68
2022-08-30T02:26:57.167Z,63.65
2022-08-30T02:29:26.309Z,64.06
2022-08-30T02:31:55.824Z,64.68
2022-08-30T02:34:24.145Z,64.87
2022-08-30T02:36:52.552Z,65.20
2022-08-30T02:39:20.708Z,65.68
2022-08-30T02:41:48.846Z,66.12
2022-08-30T02:44:16.983Z,66.48
2022-08-30T02:46:45.834Z,67.09
2022-08-30T02:49:33.560Z,67.45
2022-08-30T02:52:03.197Z,67.90
2022-08-30T02:54:33.336Z,68.42
2022-08-30T02:57:05.271Z,68.10
2022-08-30T02:59:37.909Z,68.08
2022-08-30T03:02:08.783Z,68.15
2022-08-30T03:04:39.274Z,68.00
2022-08-30T03:07:08.308Z,67.72
2022-08-30T03:09:36.977Z,67.95
2022-08-30T03:12:07.192Z,68.16
2022-08-30T03:14:36.729Z,67.99
2022-08-30T03:17:06.858Z,67.79
2022-08-30T03:19:42.330Z,67.38
2022-08-30T03:22:10.671Z,66.85
2022-08-30T03:24:38.787Z,66.41
2022-08-30T03:27:07.619Z,66.08
2022-08-30T03:29:36.525Z,66.37
2022-08-30T03:32:05.517Z,66.73
2022-08-30T03:34:34.089Z,66.79
2022-08-30T03:37:03.706Z,68.02
2022-08-30T03:39:32.057Z,69.25
2022-08-30T03:42:00.187Z,69.30
2022-08-30T03:44:28.472Z,74.29
2022-08-30T03:46:56.774Z,73.38
2022-08-30T03:49:25.323Z,76.60
2022-08-30T03:51:53.530Z,78.40
2022-08-30T03:54:24.762Z,80.38
2022-08-30T03:56:53.114Z,83.81
2022-08-30T03:59:21.416Z,82.59
2022-08-30T04:01:49.796Z,79.83
2022-08-30T04:04:20.889Z,84.58
2022-08-30T04:06:50.109Z,84.88
2022-08-30T04:09:19.186Z,84.36
2022-08-30T04:11:49.059Z,83.91
2022-08-30T04:14:17.330Z,83.58
2022-08-30T04:16:45.557Z,83.75
2022-08-30T04:19:13.849Z,83.52
2022-08-30T04:21:43.729Z,81.75
2022-08-30T04:24:12.470Z,81.12
2022-08-30T04:26:40.696Z,80.50
2022-08-30T04:29:11.779Z,80.10
2022-08-30T04:31:40.026Z,79.63
2022-08-30T04:34:08.250Z,79.09
2022-08-30T04:36:36.398Z,78.58
2022-08-30T04:39:05.150Z,77.94
2022-08-30T04:41:33.440Z,78.02
2022-08-30T04:44:03.823Z,76.83
2022-08-30T04:46:33.415Z,75.65
2022-08-30T04:49:01.627Z,74.45
2022-08-30T04:51:30.248Z,73.00
2022-08-30T04:53:58.377Z,72.99
2022-08-30T04:56:26.922Z,70.70
2022-08-30T04:58:56.201Z,65.74
2022-08-30T05:01:27.435Z,65.84
2022-08-30T05:03:58.699Z,69.16
2022-08-30T05:06:31.200Z,71.95
2022-08-30T05:09:00.559Z,75.86
2022-08-30T05:11:29.854Z,76.96
2022-08-30T05:13:57.971Z,77.61
2022-08-30T05:16:26.265Z,78.02
2022-08-30T05:18:55.818Z,76.83
2022-08-30T05:21:30.278Z,81.99
2022-08-30T05:24:00.854Z,81.32
2022-08-30T05:26:32.439Z,81.52
2022-08-30T05:29:00.913Z,81.23
2022-08-30T05:31:31.313Z,79.62
2022-08-30T05:34:00.085Z,80.48
2022-08-30T05:36:32.631Z,80.82
2022-08-30T05:39:01.733Z,78.82
2022-08-30T05:41:33.922Z,72.05
2022-08-30T05:44:03.897Z,65.80
2022-08-30T05:49:09.785Z,61.40
2022-08-30T05:51:42.966Z,56.80
2022-08-30T05:54:12.810Z,54.76
2022-08-30T05:56:42.249Z,54.29
2022-08-30T05:59:10.911Z,55.54
2022-08-30T06:01:41.267Z,51.95
2022-08-30T06:04:12.004Z,49.26
2022-08-30T06:06:44.325Z,51.85
2022-08-30T06:09:14.641Z,50.88
2022-08-30T06:11:43.227Z,52.40
2022-08-30T06:14:11.538Z,53.23
2022-08-30T06:16:41.059Z,50.56
2022-08-30T06:19:11.161Z,53.62
2022-08-30T06:21:42.025Z,54.94
2022-08-30T06:24:12.144Z,51.81
2022-08-30T06:26:42.071Z,51.51
2022-08-30T06:29:11.757Z,50.23
2022-08-30T06:31:40.562Z,49.36
2022-08-30T06:34:08.956Z,48.18
2022-08-30T06:36:38.693Z,45.56
2022-08-30T06:39:09.198Z,43.42
2022-08-30T06:41:40.090Z,43.39
2022-08-30T06:44:09.151Z,42.92
2022-08-30T06:46:39.346Z,44.36
2022-08-30T06:49:11.422Z,44.57
2022-08-30T06:51:41.268Z,42.51
2022-08-30T06:54:12.387Z,43.05
2022-08-30T06:56:48.693Z,42.44
2022-08-30T06:59:27.012Z,42.05
2022-08-30T07:01:55.724Z,41.35
2022-08-30T07:04:24.468Z,42.24
2022-08-30T07:06:53.382Z,42.75
2022-08-30T07:09:23.299Z,42.25
2022-08-30T07:11:52.082Z,41.66
2022-08-30T07:14:21.102Z,42.50
2022-08-30T07:16:51.049Z,42.41
2022-08-30T07:19:21.484Z,44.69
2022-08-30T07:21:50.635Z,48.57
2022-08-30T07:24:27.183Z,49.47
2022-08-30T07:26:55.566Z,51.26
2022-08-30T07:29:23.778Z,48.98
2022-08-30T07:31:51.966Z,49.08
2022-08-30T07:34:22.364Z,49.85
2022-08-30T07:36:51.958Z,56.28
2022-08-30T07:39:20.173Z,56.35
2022-08-30T07:41:50.938Z,54.75
2022-08-30T07:44:19.462Z,53.40
2022-08-30T07:46:53.295Z,50.88
2022-08-30T07:49:21.517Z,53.41
2022-08-30T07:51:49.589Z,53.78
2022-08-30T07:54:17.837Z,53.19
2022-08-30T07:56:45.978Z,55.09
2022-08-30T07:59:15.582Z,53.37
2022-08-30T08:01:43.975Z,55.40
2022-08-30T08:04:12.399Z,55.13
2022-08-30T08:06:41.272Z,53.87
2022-08-30T08:09:09.691Z,52.72
2022-08-30T08:11:39.958Z,49.75
2022-08-30T08:14:08.615Z,48.55
2022-08-30T08:16:39.201Z,46.19
2022-08-30T08:19:09.438Z,42.88
2022-08-30T08:21:38.389Z,48.57
2022-08-30T08:24:07.611Z,45.91
2022-08-30T08:26:37.119Z,41.42
2022-08-30T08:29:06.663Z,46.42
2022-08-30T08:31:35.028Z,41.76
2022-08-30T08:34:06.435Z,46.19
2022-08-30T08:36:36.248Z,49.51
2022-08-30T08:39:07.736Z,45.27
2022-08-30T08:41:46.807Z,39.13
2022-08-30T08:44:22.852Z,45.68
2022-08-30T08:46:58.147Z,49.89
2022-08-30T08:49:28.254Z,55.33
2022-08-30T08:52:14.500Z,55.04
2022-08-30T08:54:48.190Z,53.50
2022-08-30T08:57:17.747Z,53.08
2022-08-30T08:59:48.679Z,55.06
2022-08-30T09:02:26.037Z,55.51
2022-08-30T09:05:01.451Z,52.17
2022-08-30T09:07:33.994Z,49.79
2022-08-30T09:10:02.296Z,48.78
2022-08-30T09:12:30.629Z,49.47
2022-08-30T09:15:05.606Z,49.99
2022-08-30T09:17:51.301Z,50.02
2022-08-30T09:20:33.039Z,49.82
2022-08-30T09:23:12.717Z,51.50
2022-08-30T09:25:52.129Z,51.42
2022-08-30T09:28:24.702Z,50.95
2022-08-30T09:31:07.721Z,51.13
2022-08-30T09:33:39.499Z,51.36
2022-08-30T09:36:26.577Z,52.38
2022-08-30T09:39:03.719Z,53.30
2022-08-30T09:41:40.415Z,54.77
2022-08-30T09:44:15.378Z,57.11
2022-08-30T09:46:49.880Z,60.33
2022-08-30T09:49:37.909Z,62.42
2022-08-30T09:52:16.997Z,61.88
2022-08-30T09:54:56.648Z,62.22
2022-08-30T09:57:34.384Z,61.65
2022-08-30T10:00:07.512Z,62.52
2022-08-30T10:02:54.002Z,63.05
2022-08-30T10:05:30.918Z,63.43
2022-08-30T10:08:12.774Z,62.26
2022-08-30T10:10:51.722Z,60.30
2022-08-30T10:13:49.276Z,58.02
2022-08-30T10:16:30.772Z,58.18
2022-08-30T10:19:07.292Z,59.08
2022-08-30T10:21:43.728Z,53.37
2022-08-30T10:24:20.738Z,55.56
2022-08-30T10:26:54.182Z,57.04
2022-08-30T10:29:29.549Z,60.22
2022-08-30T10:32:04.823Z,63.42
2022-08-30T10:34:38.158Z,59.73
2022-08-30T10:37:10.997Z,59.16
2022-08-30T10:39:47.516Z,58.18
2022-08-30T10:42:21.849Z,62.22
2022-08-30T10:44:56.698Z,61.81
2022-08-30T10:47:36.152Z,62.98
2022-08-30T10:50:15.305Z,59.24
2022-08-30T10:52:51.621Z,62.40
2022-08-30T10:55:25.522Z,62.47
2022-08-30T10:57:54.024Z,62.82
2022-08-30T11:00:28.269Z,61.68
2022-08-30T11:03:46.807Z,59.39
2022-08-30T11:06:22.900Z,56.27
2022-08-30T11:09:12.869Z,50.47
2022-08-30T11:11:59.237Z,54.65
2022-08-30T11:14:28.234Z,55.08
2022-08-30T11:17:00.494Z,60.47
2022-08-30T11:19:35.919Z,60.18
2022-08-30T11:22:14.871Z,63.64
2022-08-30T11:25:02.044Z,63.83
2022-08-30T11:27:52.718Z,60.31
2022-08-30T11:30:49.904Z,59.86
2022-08-30T11:33:42.274Z,62.99
2022-08-30T11:37:09.708Z,62.35
2022-08-30T11:40:04.127Z,62.39
2022-08-30T11:42:42.992Z,62.64
2022-08-30T11:45:54.869Z,64.29
2022-08-30T11:48:53.815Z,62.77
2022-08-30T11:51:58.040Z,65.39
2022-08-30T11:54:37.663Z,64.45
2022-08-30T11:57:18.689Z,63.75
2022-08-30T11:59:59.428Z,65.76
2022-08-30T12:02:55.882Z,64.18
2022-08-30T12:05:54.553Z,66.63
2022-08-30T12:08:47.771Z,68.79
2022-08-30T12:12:04.756Z,69.23
2022-08-30T12:14:54.699Z,68.74
2022-08-30T12:17:47.866Z,69.15
2022-08-30T12:20:24.852Z,71.17
2022-08-30T12:22:54.543Z,70.17
2022-08-30T12:25:32.352Z,71.13
2022-08-30T12:28:11.538Z,70.50
2022-08-30T12:30:40.928Z,70.30
2022-08-30T12:33:14.187Z,69.76
2022-08-30T12:35:45.434Z,69.96
2022-08-30T12:38:19.541Z,69.58
2022-08-30T12:40:58.831Z,71.15
2022-08-30T12:43:33.171Z,70.70
2022-08-30T12:46:12.518Z,72.96
2022-08-30T12:48:44.564Z,72.18
2022-08-30T12:51:29.095Z,71.00
2022-08-30T12:54:06.880Z,71.22
2022-08-30T12:56:51.252Z,70.02
2022-08-30T12:59:52.898Z,71.93
2022-08-30T13:02:26.236Z,74.36
2022-08-30T13:04:56.466Z,76.17
2022-08-30T13:07:37.096Z,74.75
2022-08-30T13:10:15.309Z,75.62
2022-08-30T13:13:02.326Z,77.80
2022-08-30T13:15:33.790Z,75.70
2022-08-30T13:18:27.022Z,77.38
2022-08-30T13:21:11.471Z,79.05
2022-08-30T13:23:42.212Z,77.08
2022-08-30T13:26:11.435Z,77.08
2022-08-30T13:28:51.104Z,76.85
2022-08-30T13:31:19.605Z,75.08
2022-08-30T13:33:47.816Z,76.03
2022-08-30T13:36:16.360Z,76.54
2022-08-30T13:38:45.987Z,76.20
2022-08-30T13:41:14.704Z,76.13
2022-08-30T13:46:31.111Z,79.18
2022-08-30T13:49:04.867Z,79.28
2022-08-30T13:51:33.638Z,78.11
2022-08-30T13:54:04.690Z,77.89
2022-08-30T13:56:33.345Z,77.57
2022-08-30T13:59:03.815Z,77.43
2022-08-30T14:02:07.439Z,78.03
2022-08-30T14:04:22.360Z,79.34
2022-08-30T14:09:40.481Z,78.94
2022-08-30T14:12:09.548Z,78.67
2022-08-30T14:14:43.006Z,79.02
2022-08-30T14:17:12.489Z,79.31
2022-08-30T14:19:40.971Z,80.40
2022-08-30T14:22:09.166Z,79.69
2022-08-30T14:24:37.400Z,81.95
2022-08-30T14:27:07.021Z,82.20
2022-08-30T14:29:36.178Z,81.53
2022-08-30T14:32:06.007Z,81.50
2022-08-30T14:34:34.337Z,82.56
2022-08-30T14:37:03.013Z,83.10
2022-08-30T14:39:32.620Z,82.15
2022-08-30T14:42:04.300Z,83.42
2022-08-30T14:44:55.224Z,84.71
2022-08-30T14:47:29.638Z,84.65
2022-08-30T14:50:00.953Z,83.75
2022-08-30T14:52:29.696Z,83.67
2022-08-30T14:55:05.250Z,83.68
2022-08-30T14:57:38.309Z,83.46
2022-08-30T15:00:11.875Z,83.06
2022-08-30T15:02:40.795Z,84.15
2022-08-30T15:05:09.739Z,85.52
2022-08-30T15:07:37.986Z,85.81
2022-08-30T15:10:08.505Z,85.61
2022-08-30T15:12:36.729Z,86.08
2022-08-30T15:15:05.304Z,87.48
2022-08-30T15:17:35.502Z,88.30
2022-08-30T15:20:10.303Z,87.39
2022-08-30T15:22:39.097Z,88.46
2022-08-30T15:25:10.166Z,87.36
2022-08-30T15:27:38.416Z,87.29
2022-08-30T15:30:08.407Z,87.33
2022-08-30T15:32:40.659Z,89.22
2022-08-30T15:35:09.856Z,89.00
2022-08-30T15:37:38.518Z,89.19
2022-08-30T15:40:08.506Z,89.19
2022-08-30T15:42:36.735Z,89.96
2022-08-30T15:45:05.704Z,91.94
2022-08-30T15:47:34.598Z,90.95
2022-08-30T15:50:07.145Z,91.23
2022-08-30T15:52:35.800Z,91.04
2022-08-30T15:55:06.414Z,92.83
2022-08-30T15:57:34.574Z,91.82
2022-08-30T16:00:05.902Z,91.54
2022-08-30T16:02:35.083Z,92.92
2022-08-30T16:05:05.897Z,92.83
2022-08-30T16:07:38.616Z,94.11
2022-08-30T16:10:10.689Z,94.30
2022-08-30T16:12:39.008Z,94.25
2022-08-30T16:15:08.008Z,94.79
2022-08-30T16:17:36.999Z,96.11
2022-08-30T16:20:11.817Z,96.82
2022-08-30T16:22:40.092Z,96.47
2022-08-30T16:25:14.263Z,96.70
2022-08-30T16:27:44.151Z,96.26
2022-08-30T16:30:13.424Z,95.96
2022-08-30T16:32:41.631Z,96.15
2022-08-30T16:35:12.577Z,96.69
2022-08-30T16:37:40.746Z,97.51
2022-08-30T16:40:11.406Z,97.75
2022-08-30T16:42:39.674Z,98.08
2022-08-30T16:45:10.263Z,97.73
2022-08-30T16:47:39.196Z,98.69
2022-08-30T16:50:08.538Z,99.44
2022-08-30T16:52:42.323Z,98.99
2022-08-30T16:55:12.313Z,99.24
2022-08-30T16:57:41.250Z,98.16
2022-08-30T17:00:13.787Z,97.30
2022-08-30T17:02:45.334Z,97.41
2022-08-30T17:05:22.224Z,97.75
2022-08-30T17:07:53.040Z,97.85
2022-08-30T17:10:26.244Z,95.19
2022-08-30T17:12:59.954Z,96.22
2022-08-30T17:15:28.319Z,97.28
2022-08-30T17:17:57.461Z,98.42
2022-08-30T17:20:26.930Z,98.21
2022-08-30T17:22:56.550Z,99.22
2022-08-30T17:25:25.818Z,99.09
2022-08-30T17:27:57.901Z,100.00
2022-08-30T17:30:26.047Z,100.00
2022-08-30T17:32:54.709Z,100.00
2022-08-30T17:35:24.195Z,100.00
2022-08-30T17:37:53.799Z,100.00
2022-08-30T17:40:23.567Z,100.00
2022-08-30T17:42:53.060Z,100.00
2022-08-30T17:45:21.697Z,100.00
2022-08-30T17:47:50.388Z,100.00
2022-08-30T17:50:19.390Z,100.00
2022-08-30T17:52:48.146Z,100.00
2022-08-30T17:55:16.410Z,100.00
2022-08-30T17:57:47.297Z,100.00
2022-08-30T18:00:20.261Z,100.00
2022-08-30T18:02:49.679Z,100.00
2022-08-30T18:05:17.966Z,100.00
2022-08-30T18:07:52.858Z,100.00
2022-08-30T18:10:28.472Z,100.00
2022-08-30T18:13:02.510Z,100.00
2022-08-30T18:15:30.988Z,100.00
2022-08-30T18:17:59.086Z,100.00
2022-08-30T18:20:27.738Z,100.00
2022-08-30T18:22:59.601Z,100.00
2022-08-30T18:25:27.751Z,100.00
2022-08-30T18:27:58.182Z,100.00
2022-08-30T18:30:33.992Z,100.00
2022-08-30T18:33:06.807Z,100.00
2022-08-30T18:35:35.042Z,100.00
2022-08-30T18:38:04.742Z,100.00
2022-08-30T18:40:33.003Z,100.00
2022-08-30T18:43:07.954Z,100.00
2022-08-30T18:45:38.823Z,100.00
2022-08-30T18:48:07.374Z,100.00
2022-08-30T18:50:36.323Z,100.00
2022-08-30T18:53:04.719Z,100.00
2022-08-30T18:55:37.171Z,100.00
2022-08-30T18:58:08.764Z,100.00
2022-08-30T19:00:40.859Z,100.00
2022-08-30T19:03:09.076Z,100.00
2022-08-30T19:05:38.921Z,100.00
2022-08-30T19:08:08.017Z,100.00
2022-08-30T19:10:37.660Z,100.00
2022-08-30T19:13:06.033Z,100.00
2022-08-30T19:15:35.577Z,100.00
2022-08-30T19:18:16.766Z,100.00
2022-08-30T19:20:47.448Z,100.00
2022-08-30T19:23:16.119Z,100.00
2022-08-30T19:25:45.419Z,100.00
2022-08-30T19:28:20.592Z,100.00
2022-08-30T19:30:48.887Z,100.00
2022-08-30T19:33:19.816Z,100.00
2022-08-30T19:35:51.149Z,100.00
2022-08-30T19:38:19.782Z,100.00
2022-08-30T19:40:52.473Z,100.00
2022-08-30T19:43:22.776Z,100.00
2022-08-30T19:45:55.309Z,100.00
2022-08-30T19:48:31.998Z,100.00
2022-08-30T19:51:01.580Z,100.00
2022-08-30T19:53:29.822Z,100.00
2022-08-30T19:55:58.046Z,100.00
2022-08-30T19:58:26.235Z,100.00
2022-08-30T20:01:01.145Z,100.00
2022-08-30T20:03:41.588Z,100.00
2022-08-30T20:06:10.098Z,100.00
2022-08-30T20:08:38.595Z,100.00
2022-08-30T20:11:07.995Z,100.00
2022-08-30T20:13:37.314Z,100.00
2022-08-30T20:16:06.265Z,100.00
2022-08-30T20:18:34.453Z,100.00
2022-08-30T20:21:04.533Z,100.00
2022-08-30T20:23:42.139Z,100.00
2022-08-30T20:26:11.933Z,100.00
2022-08-30T20:28:40.800Z,100.00
2022-08-30T20:31:12.122Z,100.00
2022-08-30T20:33:41.186Z,100.00
2022-08-30T20:36:11.724Z,100.00
2022-08-30T20:38:40.586Z,100.00
2022-08-30T20:41:11.750Z,100.00
2022-08-30T20:43:40.366Z,100.00
2022-08-30T20:46:09.662Z,100.00
2022-08-30T20:48:38.255Z,100.00
2022-08-30T20:51:12.086Z,100.00
2022-08-30T20:53:40.419Z,100.00
2022-08-30T20:56:13.262Z,100.00
2022-08-30T20:58:43.055Z,100.00
2022-08-30T21:01:13.267Z,100.00
2022-08-30T21:03:42.626Z,100.00
2022-08-30T21:06:12.827Z,100.00
2022-08-30T21:08:41.308Z,100.00
2022-08-30T21:11:10.083Z,100.00
2022-08-30T21:13:39.026Z,100.00
2022-08-30T21:16:07.919Z,100.00
2022-08-30T21:18:38.239Z,100.00
2022-08-30T21:21:12.190Z,100.00
2022-08-30T21:23:40.632Z,100.00
2022-08-30T21:26:09.903Z,100.00
2022-08-30T21:28:38.824Z,100.00
2022-08-30T21:31:09.045Z,100.00
2022-08-30T21:33:37.684Z,100.00
2022-08-30T21:36:23.921Z,100.00
2022-08-30T21:38:54.720Z,100.00
2022-08-30T21:41:30.217Z,100.00
2022-08-30T21:43:59.556Z,100.00
2022-08-30T21:46:29.485Z,100.00
2022-08-30T21:49:01.166Z,100.00
2022-08-30T21:51:30.202Z,100.00
2022-08-30T21:54:01.142Z,100.00
2022-08-30T21:56:29.942Z,100.00
2022-08-30T21:58:58.376Z,100.00
2022-08-30T22:01:28.849Z,100.00
2022-08-30T22:03:58.869Z,100.00
2022-08-30T22:06:31.002Z,100.00
2022-08-30T22:09:02.622Z,100.00
2022-08-30T22:11:32.950Z,100.00
2022-08-30T22:14:02.050Z,100.00
2022-08-30T22:16:30.535Z,100.00
2022-08-30T22:18:58.978Z,100.00
2022-08-30T22:21:29.924Z,100.00
2022-08-30T22:23:58.482Z,100.00
2022-08-30T22:26:28.544Z,100.00
2022-08-30T22:28:57.021Z,100.00
2022-08-30T22:31:26.503Z,100.00
2022-08-30T22:33:55.807Z,100.00
2022-08-30T22:36:32.389Z,100.00
2022-08-30T22:39:03.014Z,100.00
2022-08-30T22:41:34.125Z,100.00
2022-08-30T22:44:02.543Z,100.00
2022-08-30T22:46:33.890Z,100.00
2022-08-30T22:49:03.515Z,100.00
2022-08-30T22:51:31.717Z,100.00
2022-08-30T22:54:01.306Z,100.00
2022-08-30T22:56:30.901Z,100.00
2022-08-30T22:59:00.389Z,100.00
2022-08-30T23:01:31.165Z,100.00
2022-08-30T23:04:01.186Z,100.00
2022-08-30T23:06:30.314Z,100.00
2022-08-30T23:08:58.517Z,100.00
2022-08-30T23:11:27.450Z,100.00
2022-08-30T23:13:55.888Z,100.00
2022-08-30T23:16:25.491Z,100.00
2022-08-30T23:18:53.822Z,100.00
2022-08-30T23:21:26.117Z,100.00
2022-08-30T23:24:13.128Z,100.00
2022-08-30T23:26:59.611Z,100.00
2022-08-30T23:29:45.973Z,100.00
2022-08-30T23:32:33.151Z,100.00
2022-08-30T23:35:18.648Z,100.00
2022-08-30T23:38:05.557Z,100.00
2022-08-30T23:40:51.090Z,100.00
2022-08-30T23:43:36.526Z,100.00
2022-08-30T23:46:22.260Z,100.00
2022-08-30T23:49:09.372Z,100.00
2022-08-30T23:51:56.211Z,100.00
2022-08-30T23:54:42.472Z,100.00
2022-08-30T23:57:28.344Z,100.00
